sensor_id;sensor_type;location;lat;lon;timestamp;P1;durP1;ratioP1;P2;durP2;ratioP2
68921;SDS011;55959;51.244;5.724;2023-07-13T00:02:02;2.50;;;1.00;;
68921;SDS011;55959;51.244;5.724;2023-07-13T00:04:28;2.08;;;1.25;;
68921;SDS011;55959;51.244;5.724;2023-07-13T00:06:54;1.58;;;0.98;;
68921;SDS011;55959;51.244;5.724;2023-07-13T00:09:20;2.33;;;1.00;;
68921;SDS011;55959;51.244;5.724;2023-07-13T00:11:49;1.83;;;0.80;;
68921;SDS011;55959;51.244;5.724;2023-07-13T00:14:21;2.55;;;0.70;;
68921;SDS011;55959;51.244;5.724;2023-07-13T00:16:47;2.13;;;0.88;;
68921;SDS011;55959;51.244;5.724;2023-07-13T00:19:13;1.58;;;0.75;;
68921;SDS011;55959;51.244;5.724;2023-07-13T00:21:40;2.30;;;0.82;;
68921;SDS011;55959;51.244;5.724;2023-07-13T00:24:07;1.20;;;0.70;;
68921;SDS011;55959;51.244;5.724;2023-07-13T00:26:40;1.13;;;0.68;;
68921;SDS011;55959;51.244;5.724;2023-07-13T00:29:09;1.77;;;0.77;;
68921;SDS011;55959;51.244;5.724;2023-07-13T00:31:35;1.63;;;1.00;;
68921;SDS011;55959;51.244;5.724;2023-07-13T00:34:02;1.63;;;0.80;;
68921;SDS011;55959;51.244;5.724;2023-07-13T00:36:29;2.20;;;0.90;;
68921;SDS011;55959;51.244;5.724;2023-07-13T00:38:56;1.75;;;0.77;;
68921;SDS011;55959;51.244;5.724;2023-07-13T00:41:22;1.55;;;0.60;;
68921;SDS011;55959;51.244;5.724;2023-07-13T00:43:48;2.45;;;0.80;;
68921;SDS011;55959;51.244;5.724;2023-07-13T00:46:19;1.45;;;0.95;;
68921;SDS011;55959;51.244;5.724;2023-07-13T00:48:56;3.22;;;0.93;;
68921;SDS011;55959;51.244;5.724;2023-07-13T00:51:31;1.65;;;0.88;;
68921;SDS011;55959;51.244;5.724;2023-07-13T00:54:28;1.20;;;0.75;;
68921;SDS011;55959;51.244;5.724;2023-07-13T00:57:01;1.10;;;0.55;;
68921;SDS011;55959;51.244;5.724;2023-07-13T00:59:31;2.47;;;1.20;;
68921;SDS011;55959;51.244;5.724;2023-07-13T01:02:01;1.33;;;0.80;;
68921;SDS011;55959;51.244;5.724;2023-07-13T01:04:28;2.25;;;0.90;;
68921;SDS011;55959;51.244;5.724;2023-07-13T01:06:55;2.47;;;1.00;;
68921;SDS011;55959;51.244;5.724;2023-07-13T01:09:22;3.60;;;0.90;;
68921;SDS011;55959;51.244;5.724;2023-07-13T01:11:48;1.60;;;0.70;;
68921;SDS011;55959;51.244;5.724;2023-07-13T01:14:15;1.90;;;1.00;;
68921;SDS011;55959;51.244;5.724;2023-07-13T01:16:41;2.97;;;1.17;;
68921;SDS011;55959;51.244;5.724;2023-07-13T01:19:15;3.25;;;1.00;;
68921;SDS011;55959;51.244;5.724;2023-07-13T01:22:06;1.75;;;0.90;;
68921;SDS011;55959;51.244;5.724;2023-07-13T01:24:44;3.08;;;1.00;;
68921;SDS011;55959;51.244;5.724;2023-07-13T01:27:13;2.33;;;0.95;;
68921;SDS011;55959;51.244;5.724;2023-07-13T01:29:43;1.98;;;1.10;;
68921;SDS011;55959;51.244;5.724;2023-07-13T01:32:16;2.47;;;0.90;;
68921;SDS011;55959;51.244;5.724;2023-07-13T01:34:52;3.58;;;1.00;;
68921;SDS011;55959;51.244;5.724;2023-07-13T01:37:22;2.45;;;0.93;;
68921;SDS011;55959;51.244;5.724;2023-07-13T01:39:49;2.72;;;0.98;;
68921;SDS011;55959;51.244;5.724;2023-07-13T01:42:15;2.45;;;0.93;;
68921;SDS011;55959;51.244;5.724;2023-07-13T01:44:41;2.72;;;1.02;;
68921;SDS011;55959;51.244;5.724;2023-07-13T01:47:07;2.83;;;1.13;;
68921;SDS011;55959;51.244;5.724;2023-07-13T01:49:34;1.48;;;0.90;;
68921;SDS011;55959;51.244;5.724;2023-07-13T01:52:00;1.45;;;0.77;;
68921;SDS011;55959;51.244;5.724;2023-07-13T01:54:26;1.98;;;0.60;;
68921;SDS011;55959;51.244;5.724;2023-07-13T01:56:52;2.63;;;1.00;;
68921;SDS011;55959;51.244;5.724;2023-07-13T01:59:17;2.38;;;0.90;;
68921;SDS011;55959;51.244;5.724;2023-07-13T02:01:43;1.85;;;0.90;;
68921;SDS011;55959;51.244;5.724;2023-07-13T02:04:09;2.65;;;1.00;;
68921;SDS011;55959;51.244;5.724;2023-07-13T02:06:35;1.92;;;0.90;;
68921;SDS011;55959;51.244;5.724;2023-07-13T02:09:01;2.42;;;1.05;;
68921;SDS011;55959;51.244;5.724;2023-07-13T02:11:27;3.65;;;0.93;;
68921;SDS011;55959;51.244;5.724;2023-07-13T02:13:57;1.92;;;0.80;;
68921;SDS011;55959;51.244;5.724;2023-07-13T02:16:27;3.03;;;1.00;;
68921;SDS011;55959;51.244;5.724;2023-07-13T02:18:54;3.35;;;1.25;;
68921;SDS011;55959;51.244;5.724;2023-07-13T02:21:20;2.17;;;0.95;;
68921;SDS011;55959;51.244;5.724;2023-07-13T02:23:48;1.85;;;0.93;;
68921;SDS011;55959;51.244;5.724;2023-07-13T02:26:14;2.15;;;0.75;;
68921;SDS011;55959;51.244;5.724;2023-07-13T02:28:40;1.70;;;0.85;;
68921;SDS011;55959;51.244;5.724;2023-07-13T02:31:07;2.38;;;1.25;;
68921;SDS011;55959;51.244;5.724;2023-07-13T02:33:35;3.10;;;1.15;;
68921;SDS011;55959;51.244;5.724;2023-07-13T02:36:01;2.20;;;1.00;;
68921;SDS011;55959;51.244;5.724;2023-07-13T02:38:27;2.97;;;1.00;;
68921;SDS011;55959;51.244;5.724;2023-07-13T02:40:53;1.83;;;0.90;;
68921;SDS011;55959;51.244;5.724;2023-07-13T02:43:19;2.15;;;1.00;;
68921;SDS011;55959;51.244;5.724;2023-07-13T02:45:45;2.58;;;0.93;;
68921;SDS011;55959;51.244;5.724;2023-07-13T02:48:11;1.77;;;0.82;;
68921;SDS011;55959;51.244;5.724;2023-07-13T02:50:38;1.52;;;1.00;;
68921;SDS011;55959;51.244;5.724;2023-07-13T02:53:04;2.15;;;1.00;;
68921;SDS011;55959;51.244;5.724;2023-07-13T02:55:30;2.10;;;0.85;;
68921;SDS011;55959;51.244;5.724;2023-07-13T02:57:56;2.83;;;1.23;;
68921;SDS011;55959;51.244;5.724;2023-07-13T03:00:22;2.08;;;0.80;;
68921;SDS011;55959;51.244;5.724;2023-07-13T03:02:48;2.47;;;1.00;;
68921;SDS011;55959;51.244;5.724;2023-07-13T03:05:14;2.33;;;1.20;;
68921;SDS011;55959;51.244;5.724;2023-07-13T03:07:41;2.45;;;1.05;;
68921;SDS011;55959;51.244;5.724;2023-07-13T03:10:07;2.47;;;1.10;;
68921;SDS011;55959;51.244;5.724;2023-07-13T03:12:34;2.20;;;0.80;;
68921;SDS011;55959;51.244;5.724;2023-07-13T03:15:00;2.05;;;0.75;;
68921;SDS011;55959;51.244;5.724;2023-07-13T03:17:25;2.75;;;1.02;;
68921;SDS011;55959;51.244;5.724;2023-07-13T03:19:51;2.20;;;1.10;;
68921;SDS011;55959;51.244;5.724;2023-07-13T03:22:18;3.03;;;1.20;;
68921;SDS011;55959;51.244;5.724;2023-07-13T03:24:44;2.88;;;1.08;;
68921;SDS011;55959;51.244;5.724;2023-07-13T03:27:13;1.83;;;1.00;;
68921;SDS011;55959;51.244;5.724;2023-07-13T03:29:40;3.55;;;1.10;;
68921;SDS011;55959;51.244;5.724;2023-07-13T03:32:07;3.00;;;1.27;;
68921;SDS011;55959;51.244;5.724;2023-07-13T03:34:34;2.90;;;1.00;;
68921;SDS011;55959;51.244;5.724;2023-07-13T03:37:00;2.78;;;1.10;;
68921;SDS011;55959;51.244;5.724;2023-07-13T03:39:25;2.13;;;1.00;;
68921;SDS011;55959;51.244;5.724;2023-07-13T03:41:51;3.17;;;1.30;;
68921;SDS011;55959;51.244;5.724;2023-07-13T03:44:18;2.15;;;1.08;;
68921;SDS011;55959;51.244;5.724;2023-07-13T03:46:44;2.85;;;1.20;;
68921;SDS011;55959;51.244;5.724;2023-07-13T03:49:11;2.83;;;1.52;;
68921;SDS011;55959;51.244;5.724;2023-07-13T03:51:38;1.88;;;1.08;;
68921;SDS011;55959;51.244;5.724;2023-07-13T03:54:03;3.90;;;1.30;;
68921;SDS011;55959;51.244;5.724;2023-07-13T03:56:29;3.45;;;1.27;;
68921;SDS011;55959;51.244;5.724;2023-07-13T03:58:57;1.50;;;1.10;;
68921;SDS011;55959;51.244;5.724;2023-07-13T04:01:24;2.53;;;1.10;;
68921;SDS011;55959;51.244;5.724;2023-07-13T04:03:51;2.00;;;1.10;;
68921;SDS011;55959;51.244;5.724;2023-07-13T04:06:21;2.38;;;1.30;;
68921;SDS011;55959;51.244;5.724;2023-07-13T04:08:52;3.53;;;1.45;;
68921;SDS011;55959;51.244;5.724;2023-07-13T04:11:20;2.47;;;1.15;;
68921;SDS011;55959;51.244;5.724;2023-07-13T04:13:48;2.63;;;1.27;;
68921;SDS011;55959;51.244;5.724;2023-07-13T04:16:15;3.50;;;1.17;;
68921;SDS011;55959;51.244;5.724;2023-07-13T04:18:42;4.30;;;1.50;;
68921;SDS011;55959;51.244;5.724;2023-07-13T04:21:09;1.95;;;1.10;;
68921;SDS011;55959;51.244;5.724;2023-07-13T04:23:35;2.55;;;1.10;;
68921;SDS011;55959;51.244;5.724;2023-07-13T04:26:02;3.25;;;1.10;;
68921;SDS011;55959;51.244;5.724;2023-07-13T04:28:28;2.45;;;1.05;;
68921;SDS011;55959;51.244;5.724;2023-07-13T04:30:53;1.50;;;0.80;;
68921;SDS011;55959;51.244;5.724;2023-07-13T04:33:20;2.13;;;1.00;;
68921;SDS011;55959;51.244;5.724;2023-07-13T04:35:52;2.45;;;1.15;;
68921;SDS011;55959;51.244;5.724;2023-07-13T04:38:21;2.72;;;1.05;;
68921;SDS011;55959;51.244;5.724;2023-07-13T04:40:55;2.30;;;1.30;;
68921;SDS011;55959;51.244;5.724;2023-07-13T04:43:24;1.85;;;1.15;;
68921;SDS011;55959;51.244;5.724;2023-07-13T04:45:51;4.07;;;1.10;;
68921;SDS011;55959;51.244;5.724;2023-07-13T04:48:19;2.42;;;1.10;;
68921;SDS011;55959;51.244;5.724;2023-07-13T04:50:46;2.85;;;1.35;;
68921;SDS011;55959;51.244;5.724;2023-07-13T04:53:12;2.95;;;1.25;;
68921;SDS011;55959;51.244;5.724;2023-07-13T04:55:38;2.50;;;1.13;;
68921;SDS011;55959;51.244;5.724;2023-07-13T04:58:05;2.78;;;1.33;;
68921;SDS011;55959;51.244;5.724;2023-07-13T05:00:31;3.35;;;1.50;;
68921;SDS011;55959;51.244;5.724;2023-07-13T05:02:57;3.42;;;1.38;;
68921;SDS011;55959;51.244;5.724;2023-07-13T05:05:24;3.00;;;1.40;;
68921;SDS011;55959;51.244;5.724;2023-07-13T05:07:51;2.13;;;1.23;;
68921;SDS011;55959;51.244;5.724;2023-07-13T05:10:18;2.83;;;1.20;;
68921;SDS011;55959;51.244;5.724;2023-07-13T05:12:45;3.72;;;1.40;;
68921;SDS011;55959;51.244;5.724;2023-07-13T05:15:11;3.58;;;1.45;;
68921;SDS011;55959;51.244;5.724;2023-07-13T05:17:37;2.80;;;1.05;;
68921;SDS011;55959;51.244;5.724;2023-07-13T05:20:07;3.83;;;1.50;;
68921;SDS011;55959;51.244;5.724;2023-07-13T05:22:34;4.88;;;1.48;;
68921;SDS011;55959;51.244;5.724;2023-07-13T05:25:00;3.35;;;1.30;;
68921;SDS011;55959;51.244;5.724;2023-07-13T05:27:29;4.00;;;1.45;;
68921;SDS011;55959;51.244;5.724;2023-07-13T05:29:54;4.10;;;1.55;;
68921;SDS011;55959;51.244;5.724;2023-07-13T05:32:20;4.38;;;1.67;;
68921;SDS011;55959;51.244;5.724;2023-07-13T05:34:46;5.18;;;1.80;;
68921;SDS011;55959;51.244;5.724;2023-07-13T05:37:12;3.80;;;1.45;;
68921;SDS011;55959;51.244;5.724;2023-07-13T05:39:37;4.35;;;1.65;;
68921;SDS011;55959;51.244;5.724;2023-07-13T05:42:03;3.40;;;1.80;;
68921;SDS011;55959;51.244;5.724;2023-07-13T05:44:29;3.85;;;1.52;;
68921;SDS011;55959;51.244;5.724;2023-07-13T05:46:55;2.92;;;1.90;;
68921;SDS011;55959;51.244;5.724;2023-07-13T05:49:22;2.53;;;1.42;;
68921;SDS011;55959;51.244;5.724;2023-07-13T05:51:48;3.28;;;1.60;;
68921;SDS011;55959;51.244;5.724;2023-07-13T05:54:14;5.47;;;1.90;;
68921;SDS011;55959;51.244;5.724;2023-07-13T05:56:40;2.85;;;1.77;;
68921;SDS011;55959;51.244;5.724;2023-07-13T05:59:06;3.38;;;1.40;;
68921;SDS011;55959;51.244;5.724;2023-07-13T06:01:31;4.65;;;1.73;;
68921;SDS011;55959;51.244;5.724;2023-07-13T06:03:57;4.10;;;1.60;;
68921;SDS011;55959;51.244;5.724;2023-07-13T06:06:23;4.47;;;1.33;;
68921;SDS011;55959;51.244;5.724;2023-07-13T06:08:49;3.33;;;1.50;;
68921;SDS011;55959;51.244;5.724;2023-07-13T06:11:19;3.17;;;1.48;;
68921;SDS011;55959;51.244;5.724;2023-07-13T06:13:47;4.10;;;1.73;;
68921;SDS011;55959;51.244;5.724;2023-07-13T06:16:13;3.60;;;1.52;;
68921;SDS011;55959;51.244;5.724;2023-07-13T06:18:40;2.25;;;1.30;;
68921;SDS011;55959;51.244;5.724;2023-07-13T06:21:10;3.75;;;1.77;;
68921;SDS011;55959;51.244;5.724;2023-07-13T06:23:42;3.85;;;1.98;;
68921;SDS011;55959;51.244;5.724;2023-07-13T06:26:10;5.85;;;2.20;;
68921;SDS011;55959;51.244;5.724;2023-07-13T06:28:36;4.03;;;2.13;;
68921;SDS011;55959;51.244;5.724;2023-07-13T06:31:05;7.10;;;2.65;;
68921;SDS011;55959;51.244;5.724;2023-07-13T06:33:32;3.45;;;1.65;;
68921;SDS011;55959;51.244;5.724;2023-07-13T06:35:58;5.28;;;2.22;;
68921;SDS011;55959;51.244;5.724;2023-07-13T06:38:24;2.90;;;2.00;;
68921;SDS011;55959;51.244;5.724;2023-07-13T06:40:50;3.58;;;1.80;;
68921;SDS011;55959;51.244;5.724;2023-07-13T06:43:16;5.15;;;2.25;;
68921;SDS011;55959;51.244;5.724;2023-07-13T06:45:44;4.88;;;2.13;;
68921;SDS011;55959;51.244;5.724;2023-07-13T06:48:12;5.63;;;2.55;;
68921;SDS011;55959;51.244;5.724;2023-07-13T06:50:39;4.32;;;2.10;;
68921;SDS011;55959;51.244;5.724;2023-07-13T06:53:06;6.68;;;2.25;;
68921;SDS011;55959;51.244;5.724;2023-07-13T06:55:32;6.15;;;2.25;;
68921;SDS011;55959;51.244;5.724;2023-07-13T06:57:58;4.57;;;2.03;;
68921;SDS011;55959;51.244;5.724;2023-07-13T07:00:24;6.43;;;2.30;;
68921;SDS011;55959;51.244;5.724;2023-07-13T07:02:50;5.18;;;2.28;;
68921;SDS011;55959;51.244;5.724;2023-07-13T07:05:16;4.03;;;1.85;;
68921;SDS011;55959;51.244;5.724;2023-07-13T07:07:42;6.75;;;2.25;;
68921;SDS011;55959;51.244;5.724;2023-07-13T07:10:09;7.90;;;3.00;;
68921;SDS011;55959;51.244;5.724;2023-07-13T07:12:34;15.48;;;4.75;;
68921;SDS011;55959;51.244;5.724;2023-07-13T07:15:00;12.38;;;3.60;;
68921;SDS011;55959;51.244;5.724;2023-07-13T07:17:26;6.70;;;2.40;;
68921;SDS011;55959;51.244;5.724;2023-07-13T07:19:52;16.50;;;4.32;;
68921;SDS011;55959;51.244;5.724;2023-07-13T07:22:20;7.60;;;2.88;;
68921;SDS011;55959;51.244;5.724;2023-07-13T07:24:46;8.00;;;2.83;;
68921;SDS011;55959;51.244;5.724;2023-07-13T07:27:12;4.45;;;2.08;;
68921;SDS011;55959;51.244;5.724;2023-07-13T07:29:38;3.35;;;1.98;;
68921;SDS011;55959;51.244;5.724;2023-07-13T07:32:03;4.88;;;2.05;;
68921;SDS011;55959;51.244;5.724;2023-07-13T07:34:30;3.97;;;2.17;;
68921;SDS011;55959;51.244;5.724;2023-07-13T07:36:58;3.47;;;1.80;;
68921;SDS011;55959;51.244;5.724;2023-07-13T07:39:27;4.30;;;2.08;;
68921;SDS011;55959;51.244;5.724;2023-07-13T07:41:53;4.18;;;1.92;;
68921;SDS011;55959;51.244;5.724;2023-07-13T07:44:19;6.47;;;2.25;;
68921;SDS011;55959;51.244;5.724;2023-07-13T07:46:45;5.32;;;2.25;;
68921;SDS011;55959;51.244;5.724;2023-07-13T07:49:11;3.63;;;1.63;;
68921;SDS011;55959;51.244;5.724;2023-07-13T07:51:38;4.85;;;1.92;;
68921;SDS011;55959;51.244;5.724;2023-07-13T07:54:04;5.95;;;2.40;;
68921;SDS011;55959;51.244;5.724;2023-07-13T07:56:30;5.18;;;1.90;;
68921;SDS011;55959;51.244;5.724;2023-07-13T07:58:57;3.63;;;1.90;;
68921;SDS011;55959;51.244;5.724;2023-07-13T08:01:23;3.83;;;1.77;;
68921;SDS011;55959;51.244;5.724;2023-07-13T08:03:48;5.28;;;2.03;;
68921;SDS011;55959;51.244;5.724;2023-07-13T08:06:14;3.95;;;1.90;;
68921;SDS011;55959;51.244;5.724;2023-07-13T08:08:40;3.55;;;2.35;;
68921;SDS011;55959;51.244;5.724;2023-07-13T08:11:06;3.15;;;1.60;;
68921;SDS011;55959;51.244;5.724;2023-07-13T08:13:34;4.82;;;2.40;;
68921;SDS011;55959;51.244;5.724;2023-07-13T08:16:00;7.10;;;2.35;;
68921;SDS011;55959;51.244;5.724;2023-07-13T08:18:26;6.90;;;2.10;;
68921;SDS011;55959;51.244;5.724;2023-07-13T08:20:55;6.53;;;2.30;;
68921;SDS011;55959;51.244;5.724;2023-07-13T08:23:24;24.35;;;4.90;;
68921;SDS011;55959;51.244;5.724;2023-07-13T08:25:54;7.88;;;2.80;;
68921;SDS011;55959;51.244;5.724;2023-07-13T08:28:23;20.63;;;4.18;;
68921;SDS011;55959;51.244;5.724;2023-07-13T08:30:49;13.15;;;3.80;;
68921;SDS011;55959;51.244;5.724;2023-07-13T08:33:16;8.30;;;2.17;;
68921;SDS011;55959;51.244;5.724;2023-07-13T08:35:48;8.00;;;2.40;;
68921;SDS011;55959;51.244;5.724;2023-07-13T08:38:15;5.18;;;1.88;;
68921;SDS011;55959;51.244;5.724;2023-07-13T08:40:42;5.68;;;2.08;;
68921;SDS011;55959;51.244;5.724;2023-07-13T08:43:09;9.00;;;2.65;;
68921;SDS011;55959;51.244;5.724;2023-07-13T08:45:47;3.80;;;1.80;;
68921;SDS011;55959;51.244;5.724;2023-07-13T08:48:20;5.72;;;2.22;;
68921;SDS011;55959;51.244;5.724;2023-07-13T08:50:55;9.43;;;2.20;;
68921;SDS011;55959;51.244;5.724;2023-07-13T08:53:36;19.70;;;4.18;;
68921;SDS011;55959;51.244;5.724;2023-07-13T08:56:28;32.00;;;6.45;;
68921;SDS011;55959;51.244;5.724;2023-07-13T08:59:13;16.23;;;3.75;;
68921;SDS011;55959;51.244;5.724;2023-07-13T09:04:35;7.90;;;2.50;;
68921;SDS011;55959;51.244;5.724;2023-07-13T09:07:40;3.42;;;1.45;;
68921;SDS011;55959;51.244;5.724;2023-07-13T09:10:28;2.95;;;1.40;;
68921;SDS011;55959;51.244;5.724;2023-07-13T09:15:56;3.92;;;1.70;;
68921;SDS011;55959;51.244;5.724;2023-07-13T09:18:28;5.05;;;1.92;;
68921;SDS011;55959;51.244;5.724;2023-07-13T09:21:09;4.95;;;1.80;;
68921;SDS011;55959;51.244;5.724;2023-07-13T09:23:47;4.32;;;1.80;;
68921;SDS011;55959;51.244;5.724;2023-07-13T09:26:18;4.50;;;1.80;;
68921;SDS011;55959;51.244;5.724;2023-07-13T09:29:00;7.68;;;2.13;;
68921;SDS011;55959;51.244;5.724;2023-07-13T09:31:37;4.80;;;2.10;;
68921;SDS011;55959;51.244;5.724;2023-07-13T09:34:10;3.03;;;1.58;;
68921;SDS011;55959;51.244;5.724;2023-07-13T09:36:39;3.95;;;1.48;;
68921;SDS011;55959;51.244;5.724;2023-07-13T09:39:10;3.35;;;1.80;;
68921;SDS011;55959;51.244;5.724;2023-07-13T09:42:17;2.30;;;1.50;;
68921;SDS011;55959;51.244;5.724;2023-07-13T09:44:56;4.10;;;1.70;;
68921;SDS011;55959;51.244;5.724;2023-07-13T09:47:28;3.33;;;1.58;;
68921;SDS011;55959;51.244;5.724;2023-07-13T09:52:24;6.57;;;1.75;;
68921;SDS011;55959;51.244;5.724;2023-07-13T09:54:53;3.80;;;1.60;;
68921;SDS011;55959;51.244;5.724;2023-07-13T09:57:24;3.88;;;1.70;;
68921;SDS011;55959;51.244;5.724;2023-07-13T09:59:53;3.95;;;1.42;;
68921;SDS011;55959;51.244;5.724;2023-07-13T10:02:35;3.50;;;1.50;;
68921;SDS011;55959;51.244;5.724;2023-07-13T10:05:05;2.65;;;1.10;;
68921;SDS011;55959;51.244;5.724;2023-07-13T10:07:39;2.17;;;1.33;;
68921;SDS011;55959;51.244;5.724;2023-07-13T10:10:15;2.78;;;1.48;;
68921;SDS011;55959;51.244;5.724;2023-07-13T10:12:44;3.15;;;1.40;;
68921;SDS011;55959;51.244;5.724;2023-07-13T10:15:15;3.67;;;1.50;;
68921;SDS011;55959;51.244;5.724;2023-07-13T10:17:45;3.78;;;1.48;;
68921;SDS011;55959;51.244;5.724;2023-07-13T10:20:12;4.55;;;1.85;;
68921;SDS011;55959;51.244;5.724;2023-07-13T10:22:43;3.67;;;1.50;;
68921;SDS011;55959;51.244;5.724;2023-07-13T10:25:29;2.15;;;1.15;;
68921;SDS011;55959;51.244;5.724;2023-07-13T10:28:04;4.00;;;1.73;;
68921;SDS011;55959;51.244;5.724;2023-07-13T10:30:52;3.17;;;1.40;;
68921;SDS011;55959;51.244;5.724;2023-07-13T10:33:21;4.22;;;1.83;;
68921;SDS011;55959;51.244;5.724;2023-07-13T10:35:47;2.05;;;1.20;;
68921;SDS011;55959;51.244;5.724;2023-07-13T10:38:21;2.63;;;1.35;;
68921;SDS011;55959;51.244;5.724;2023-07-13T10:46:10;2.50;;;1.20;;
68921;SDS011;55959;51.244;5.724;2023-07-13T10:48:41;2.83;;;1.08;;
68921;SDS011;55959;51.244;5.724;2023-07-13T10:51:10;2.42;;;1.45;;
68921;SDS011;55959;51.244;5.724;2023-07-13T10:53:39;2.63;;;1.40;;
68921;SDS011;55959;51.244;5.724;2023-07-13T11:04:23;4.65;;;1.70;;
68921;SDS011;55959;51.244;5.724;2023-07-13T11:07:09;3.10;;;1.25;;
68921;SDS011;55959;51.244;5.724;2023-07-13T11:09:46;3.30;;;1.70;;
68921;SDS011;55959;51.244;5.724;2023-07-13T11:12:27;2.53;;;0.98;;
68921;SDS011;55959;51.244;5.724;2023-07-13T11:15:30;2.63;;;1.38;;
68921;SDS011;55959;51.244;5.724;2023-07-13T11:18:21;3.88;;;1.70;;
68921;SDS011;55959;51.244;5.724;2023-07-13T11:20:50;4.78;;;2.05;;
68921;SDS011;55959;51.244;5.724;2023-07-13T11:23:17;3.33;;;1.90;;
68921;SDS011;55959;51.244;5.724;2023-07-13T11:25:52;3.47;;;1.65;;
68921;SDS011;55959;51.244;5.724;2023-07-13T11:28:21;3.65;;;1.80;;
68921;SDS011;55959;51.244;5.724;2023-07-13T11:33:22;2.05;;;1.00;;
68921;SDS011;55959;51.244;5.724;2023-07-13T11:38:51;1.83;;;1.20;;
68921;SDS011;55959;51.244;5.724;2023-07-13T11:41:36;1.88;;;1.30;;
68921;SDS011;55959;51.244;5.724;2023-07-13T11:44:20;2.65;;;1.50;;
68921;SDS011;55959;51.244;5.724;2023-07-13T11:46:51;8.27;;;1.60;;
68921;SDS011;55959;51.244;5.724;2023-07-13T11:49:25;6.15;;;1.48;;
68921;SDS011;55959;51.244;5.724;2023-07-13T11:51:56;2.70;;;1.23;;
68921;SDS011;55959;51.244;5.724;2023-07-13T11:54:25;3.05;;;1.50;;
68921;SDS011;55959;51.244;5.724;2023-07-13T11:59:31;3.42;;;1.40;;
68921;SDS011;55959;51.244;5.724;2023-07-13T12:01:58;2.67;;;1.27;;
68921;SDS011;55959;51.244;5.724;2023-07-13T12:07:07;1.92;;;1.33;;
68921;SDS011;55959;51.244;5.724;2023-07-13T12:09:41;2.97;;;1.65;;
68921;SDS011;55959;51.244;5.724;2023-07-13T12:12:13;2.63;;;1.30;;
68921;SDS011;55959;51.244;5.724;2023-07-13T12:14:43;3.72;;;1.67;;
68921;SDS011;55959;51.244;5.724;2023-07-13T12:17:16;1.75;;;1.00;;
68921;SDS011;55959;51.244;5.724;2023-07-13T12:19:50;2.85;;;1.45;;
68921;SDS011;55959;51.244;5.724;2023-07-13T12:22:18;4.03;;;1.65;;
68921;SDS011;55959;51.244;5.724;2023-07-13T12:24:45;2.22;;;1.58;;
68921;SDS011;55959;51.244;5.724;2023-07-13T12:27:20;2.72;;;1.17;;
68921;SDS011;55959;51.244;5.724;2023-07-13T12:29:59;2.08;;;0.98;;
68921;SDS011;55959;51.244;5.724;2023-07-13T12:32:54;3.13;;;1.25;;
68921;SDS011;55959;51.244;5.724;2023-07-13T12:35:31;2.30;;;1.23;;
68921;SDS011;55959;51.244;5.724;2023-07-13T12:38:09;2.15;;;1.08;;
68921;SDS011;55959;51.244;5.724;2023-07-13T12:40:36;2.15;;;1.20;;
68921;SDS011;55959;51.244;5.724;2023-07-13T12:43:03;1.98;;;1.08;;
68921;SDS011;55959;51.244;5.724;2023-07-13T12:45:31;2.42;;;0.85;;
68921;SDS011;55959;51.244;5.724;2023-07-13T12:48:18;1.67;;;0.90;;
68921;SDS011;55959;51.244;5.724;2023-07-13T12:50:46;1.65;;;1.05;;
68921;SDS011;55959;51.244;5.724;2023-07-13T12:53:14;2.25;;;1.17;;
68921;SDS011;55959;51.244;5.724;2023-07-13T12:55:49;2.90;;;1.00;;
68921;SDS011;55959;51.244;5.724;2023-07-13T12:58:24;2.58;;;1.38;;
68921;SDS011;55959;51.244;5.724;2023-07-13T13:00:54;1.42;;;1.10;;
68921;SDS011;55959;51.244;5.724;2023-07-13T13:08:48;2.75;;;1.15;;
68921;SDS011;55959;51.244;5.724;2023-07-13T13:11:16;1.33;;;1.10;;
68921;SDS011;55959;51.244;5.724;2023-07-13T13:13:45;2.38;;;1.60;;
68921;SDS011;55959;51.244;5.724;2023-07-13T13:18:55;1.80;;;1.20;;
68921;SDS011;55959;51.244;5.724;2023-07-13T13:21:23;2.08;;;1.10;;
68921;SDS011;55959;51.244;5.724;2023-07-13T13:23:51;1.38;;;0.90;;
68921;SDS011;55959;51.244;5.724;2023-07-13T13:26:18;2.13;;;1.02;;
68921;SDS011;55959;51.244;5.724;2023-07-13T13:28:48;2.45;;;1.13;;
68921;SDS011;55959;51.244;5.724;2023-07-13T13:31:14;2.35;;;1.20;;
68921;SDS011;55959;51.244;5.724;2023-07-13T13:33:44;3.17;;;1.20;;
68921;SDS011;55959;51.244;5.724;2023-07-13T13:36:19;2.70;;;1.55;;
68921;SDS011;55959;51.244;5.724;2023-07-13T13:38:48;3.25;;;1.40;;
68921;SDS011;55959;51.244;5.724;2023-07-13T13:41:16;2.50;;;1.30;;
68921;SDS011;55959;51.244;5.724;2023-07-13T13:43:42;1.75;;;1.23;;
68921;SDS011;55959;51.244;5.724;2023-07-13T13:46:21;1.60;;;0.93;;
68921;SDS011;55959;51.244;5.724;2023-07-13T13:48:51;2.20;;;1.25;;
68921;SDS011;55959;51.244;5.724;2023-07-13T13:51:20;2.35;;;1.30;;
68921;SDS011;55959;51.244;5.724;2023-07-13T13:53:48;1.90;;;1.30;;
68921;SDS011;55959;51.244;5.724;2023-07-13T13:56:15;3.25;;;1.52;;
68921;SDS011;55959;51.244;5.724;2023-07-13T13:58:43;2.97;;;1.27;;
68921;SDS011;55959;51.244;5.724;2023-07-13T14:01:14;2.67;;;1.40;;
68921;SDS011;55959;51.244;5.724;2023-07-13T14:03:43;2.80;;;1.63;;
68921;SDS011;55959;51.244;5.724;2023-07-13T14:06:13;1.75;;;1.20;;
68921;SDS011;55959;51.244;5.724;2023-07-13T14:08:41;1.55;;;1.23;;
68921;SDS011;55959;51.244;5.724;2023-07-13T14:11:11;2.90;;;1.42;;
68921;SDS011;55959;51.244;5.724;2023-07-13T14:14:01;2.75;;;1.27;;
68921;SDS011;55959;51.244;5.724;2023-07-13T14:16:29;1.55;;;1.20;;
68921;SDS011;55959;51.244;5.724;2023-07-13T14:18:57;2.22;;;1.60;;
68921;SDS011;55959;51.244;5.724;2023-07-13T14:21:25;1.35;;;1.00;;
68921;SDS011;55959;51.244;5.724;2023-07-13T14:23:53;2.75;;;1.60;;
68921;SDS011;55959;51.244;5.724;2023-07-13T14:26:20;2.30;;;1.52;;
68921;SDS011;55959;51.244;5.724;2023-07-13T14:28:58;1.45;;;1.00;;
68921;SDS011;55959;51.244;5.724;2023-07-13T14:31:24;1.83;;;1.10;;
68921;SDS011;55959;51.244;5.724;2023-07-13T14:33:53;2.47;;;1.27;;
68921;SDS011;55959;51.244;5.724;2023-07-13T14:36:32;1.45;;;0.75;;
68921;SDS011;55959;51.244;5.724;2023-07-13T14:39:20;1.55;;;1.23;;
68921;SDS011;55959;51.244;5.724;2023-07-13T14:41:53;1.80;;;1.10;;
68921;SDS011;55959;51.244;5.724;2023-07-13T14:44:21;1.58;;;1.08;;
68921;SDS011;55959;51.244;5.724;2023-07-13T14:46:57;1.67;;;0.95;;
68921;SDS011;55959;51.244;5.724;2023-07-13T14:49:35;2.38;;;1.10;;
68921;SDS011;55959;51.244;5.724;2023-07-13T14:52:15;1.20;;;0.95;;
68921;SDS011;55959;51.244;5.724;2023-07-13T14:54:44;1.73;;;1.20;;
68921;SDS011;55959;51.244;5.724;2023-07-13T14:57:12;1.48;;;0.80;;
68921;SDS011;55959;51.244;5.724;2023-07-13T14:59:40;1.67;;;1.10;;
68921;SDS011;55959;51.244;5.724;2023-07-13T15:02:28;2.03;;;1.15;;
68921;SDS011;55959;51.244;5.724;2023-07-13T15:04:57;1.13;;;1.02;;
68921;SDS011;55959;51.244;5.724;2023-07-13T15:07:23;2.30;;;1.20;;
68921;SDS011;55959;51.244;5.724;2023-07-13T15:09:50;1.95;;;1.10;;
68921;SDS011;55959;51.244;5.724;2023-07-13T15:12:16;1.17;;;1.00;;
68921;SDS011;55959;51.244;5.724;2023-07-13T15:14:42;1.52;;;0.98;;
68921;SDS011;55959;51.244;5.724;2023-07-13T15:17:22;1.67;;;1.00;;
68921;SDS011;55959;51.244;5.724;2023-07-13T15:22:57;1.30;;;1.05;;
68921;SDS011;55959;51.244;5.724;2023-07-13T15:25:25;1.02;;;0.90;;
68921;SDS011;55959;51.244;5.724;2023-07-13T15:27:53;1.40;;;1.30;;
68921;SDS011;55959;51.244;5.724;2023-07-13T15:30:21;2.17;;;1.10;;
68921;SDS011;55959;51.244;5.724;2023-07-13T15:32:52;1.95;;;1.00;;
68921;SDS011;55959;51.244;5.724;2023-07-13T15:35:24;1.00;;;0.65;;
68921;SDS011;55959;51.244;5.724;2023-07-13T15:37:51;1.10;;;1.00;;
68921;SDS011;55959;51.244;5.724;2023-07-13T15:40:18;1.55;;;1.02;;
68921;SDS011;55959;51.244;5.724;2023-07-13T15:42:46;1.30;;;0.98;;
68921;SDS011;55959;51.244;5.724;2023-07-13T15:45:21;1.20;;;1.00;;
68921;SDS011;55959;51.244;5.724;2023-07-13T15:47:49;1.25;;;1.02;;